createdAt,value
2017-04-30T00:01:34.819Z,4.12
2017-04-30T00:04:01.505Z,4.60
2017-04-30T00:06:28.189Z,4.44
2017-04-30T00:08:54.898Z,5.38
2017-04-30T00:11:21.597Z,4.70
2017-04-30T00:13:48.302Z,4.22
2017-04-30T00:16:15.093Z,5.60
2017-04-30T00:18:41.782Z,4.42
2017-04-30T00:21:08.479Z,4.98
2017-04-30T00:23:35.193Z,4.70
2017-04-30T00:26:01.985Z,4.34
2017-04-30T00:28:28.729Z,4.40
2017-04-30T00:30:55.465Z,3.80
2017-04-30T00:33:22.430Z,4.56
2017-04-30T00:35:49.106Z,3.98
2017-04-30T00:38:15.862Z,4.60
2017-04-30T00:40:42.597Z,4.80
2017-04-30T00:43:09.293Z,4.28
2017-04-30T00:45:36.734Z,3.82
2017-04-30T00:48:03.433Z,3.90
2017-04-30T00:50:30.115Z,4.38
2017-04-30T00:52:56.866Z,4.54
2017-04-30T00:55:23.613Z,4.76
2017-04-30T00:57:50.310Z,3.98
2017-04-30T01:00:17.051Z,4.44
2017-04-30T01:02:43.762Z,4.22
2017-04-30T01:05:10.557Z,4.22
2017-04-30T01:07:37.237Z,3.68
2017-04-30T01:10:03.932Z,4.22
2017-04-30T01:12:30.698Z,4.34
2017-04-30T01:14:57.406Z,4.40
2017-04-30T01:17:24.094Z,4.46
2017-04-30T01:19:51.529Z,3.98
2017-04-30T01:22:18.210Z,4.20
2017-04-30T01:24:44.910Z,4.70
2017-04-30T01:27:11.649Z,3.96
2017-04-30T01:29:38.434Z,3.98
2017-04-30T01:32:05.164Z,4.40
2017-04-30T01:34:32.618Z,3.98
2017-04-30T01:37:00.270Z,3.80
2017-04-30T01:39:27.730Z,3.74
2017-04-30T01:41:55.216Z,3.86
2017-04-30T01:44:21.925Z,3.74
2017-04-30T01:46:48.618Z,3.40
2017-04-30T01:49:15.316Z,3.84
2017-04-30T01:51:42.748Z,3.70
2017-04-30T01:54:09.509Z,3.70
2017-04-30T01:56:36.183Z,3.72
2017-04-30T01:59:02.868Z,4.96
2017-04-30T02:01:29.561Z,3.68
2017-04-30T02:03:56.282Z,3.22
2017-04-30T02:06:22.982Z,4.42
2017-04-30T02:08:49.677Z,3.70
2017-04-30T02:11:16.401Z,3.84
2017-04-30T02:13:43.082Z,3.90
2017-04-30T02:16:09.765Z,3.88
2017-04-30T02:18:36.449Z,3.76
2017-04-30T02:21:03.169Z,3.56
2017-04-30T02:23:29.846Z,4.12
2017-04-30T02:25:56.565Z,3.60
2017-04-30T02:28:23.263Z,3.34
2017-04-30T02:30:49.970Z,3.86
2017-04-30T02:33:16.651Z,4.24
2017-04-30T02:35:43.352Z,3.48
2017-04-30T02:38:10.088Z,3.66
2017-04-30T02:40:36.771Z,3.70
2017-04-30T02:43:03.462Z,3.04
2017-04-30T02:45:30.152Z,3.38
2017-04-30T02:47:56.855Z,3.16
2017-04-30T02:50:23.550Z,3.16
2017-04-30T02:52:50.237Z,4.04
2017-04-30T02:55:16.942Z,3.40
2017-04-30T02:57:43.629Z,3.38
2017-04-30T03:00:11.150Z,3.54
2017-04-30T03:02:37.837Z,3.22
2017-04-30T03:05:04.566Z,3.20
2017-04-30T03:07:31.261Z,3.76
2017-04-30T03:09:57.971Z,3.80
2017-04-30T03:12:24.669Z,3.80
2017-04-30T03:14:51.425Z,3.18
2017-04-30T03:17:18.108Z,3.72
2017-04-30T03:19:44.817Z,3.30
2017-04-30T03:22:11.527Z,3.60
2017-04-30T03:24:38.216Z,3.22
2017-04-30T03:27:04.921Z,3.16
2017-04-30T03:29:32.349Z,3.56
2017-04-30T03:31:59.022Z,2.58
2017-04-30T03:34:26.501Z,3.06
2017-04-30T03:36:55.391Z,3.70
2017-04-30T03:39:34.597Z,3.70
2017-04-30T03:42:13.710Z,3.66
2017-04-30T03:44:52.819Z,3.12
2017-04-30T03:47:31.954Z,3.52
2017-04-30T03:50:11.144Z,3.56
2017-04-30T03:52:50.275Z,3.26
2017-04-30T03:55:29.464Z,3.68
2017-04-30T03:58:08.553Z,3.14
2017-04-30T04:00:47.690Z,2.98
2017-04-30T04:03:26.778Z,3.34
2017-04-30T04:06:05.912Z,3.16
2017-04-30T04:08:44.929Z,3.08
2017-04-30T04:11:24.792Z,3.08
2017-04-30T04:14:03.885Z,2.94
2017-04-30T04:16:43.013Z,2.96
2017-04-30T04:19:22.094Z,3.04
2017-04-30T04:22:01.221Z,3.56
2017-04-30T04:24:40.298Z,3.30
2017-04-30T04:27:19.374Z,3.38
2017-04-30T04:29:58.539Z,3.18
2017-04-30T04:32:37.634Z,3.12
2017-04-30T04:35:16.713Z,3.38
2017-04-30T04:37:55.893Z,3.06
2017-04-30T04:40:34.973Z,3.26
2017-04-30T04:43:14.089Z,3.46
2017-04-30T04:45:53.224Z,2.82
2017-04-30T04:48:32.309Z,3.70
2017-04-30T04:51:11.586Z,3.16
2017-04-30T04:53:50.572Z,3.40
2017-04-30T04:56:29.618Z,3.12
2017-04-30T04:59:08.837Z,3.02
2017-04-30T05:01:48.005Z,3.24
2017-04-30T05:04:27.239Z,2.84
2017-04-30T05:07:06.309Z,2.98
2017-04-30T05:09:46.139Z,3.14
2017-04-30T05:12:25.267Z,2.78
2017-04-30T05:15:04.437Z,3.16
2017-04-30T05:17:43.534Z,3.08
2017-04-30T05:20:22.828Z,2.70
2017-04-30T05:23:01.987Z,2.96
2017-04-30T05:25:41.050Z,3.44
2017-04-30T05:28:20.865Z,3.08
2017-04-30T05:31:00.193Z,3.10
2017-04-30T05:33:39.411Z,3.20
2017-04-30T05:36:18.630Z,2.86
2017-04-30T05:38:57.778Z,3.26
2017-04-30T05:41:36.840Z,2.60
2017-04-30T05:44:15.869Z,2.82
2017-04-30T05:46:54.985Z,2.98
2017-04-30T05:49:34.098Z,3.22
2017-04-30T05:52:13.306Z,3.24
2017-04-30T05:54:52.436Z,3.58
2017-04-30T05:57:31.471Z,3.32
2017-04-30T06:00:10.623Z,2.46
2017-04-30T06:02:49.731Z,3.18
2017-04-30T06:05:28.876Z,3.30
2017-04-30T06:08:08.069Z,3.44
2017-04-30T06:10:47.242Z,3.02
2017-04-30T06:13:26.401Z,3.20
2017-04-30T06:16:05.785Z,2.62
2017-04-30T06:18:45.011Z,3.24
2017-04-30T06:21:24.253Z,3.22
2017-04-30T06:24:03.465Z,2.92
2017-04-30T06:26:43.261Z,3.28
2017-04-30T06:29:22.318Z,3.38
2017-04-30T06:32:01.417Z,2.98
2017-04-30T06:34:40.572Z,2.86
2017-04-30T06:37:19.814Z,2.70
2017-04-30T06:39:58.838Z,2.28
2017-04-30T06:42:38.828Z,3.62
2017-04-30T06:45:17.940Z,2.90
2017-04-30T06:47:57.795Z,2.90
2017-04-30T06:50:36.853Z,2.94
2017-04-30T06:53:16.001Z,2.46
2017-04-30T06:55:55.077Z,2.96
2017-04-30T06:58:34.894Z,2.66
2017-04-30T07:01:13.966Z,2.54
2017-04-30T07:03:53.223Z,2.78
2017-04-30T07:06:32.373Z,2.60
2017-04-30T07:09:11.461Z,3.10
2017-04-30T07:11:50.597Z,2.30
2017-04-30T07:14:29.637Z,2.50
2017-04-30T07:17:08.842Z,2.40
2017-04-30T07:19:48.074Z,2.48
2017-04-30T07:22:27.216Z,2.68
2017-04-30T07:25:06.377Z,2.24
2017-04-30T07:27:45.637Z,2.06
2017-04-30T07:30:24.533Z,2.34
2017-04-30T07:33:03.633Z,2.42
2017-04-30T07:35:42.681Z,3.08
2017-04-30T07:38:21.798Z,2.32
2017-04-30T07:41:00.869Z,2.54
2017-04-30T07:43:27.570Z,2.58
2017-04-30T07:45:54.282Z,2.18
2017-04-30T07:48:21.040Z,2.72
2017-04-30T07:50:47.746Z,2.56
2017-04-30T07:53:14.426Z,2.82
2017-04-30T07:55:41.147Z,2.72
2017-04-30T07:58:07.883Z,2.66
2017-04-30T08:00:34.583Z,2.52
2017-04-30T08:03:01.303Z,2.82
2017-04-30T08:05:28.059Z,2.12
2017-04-30T08:07:54.769Z,2.48
2017-04-30T08:10:21.638Z,2.78
2017-04-30T08:12:48.348Z,2.18
2017-04-30T08:15:15.065Z,2.92
2017-04-30T08:17:42.581Z,2.58
2017-04-30T08:20:09.267Z,2.82
2017-04-30T08:22:36.025Z,2.70
2017-04-30T08:25:02.713Z,2.26
2017-04-30T08:27:29.519Z,2.38
2017-04-30T08:29:56.229Z,2.34
2017-04-30T08:32:23.668Z,3.38
2017-04-30T08:34:50.346Z,3.00
2017-04-30T08:37:17.049Z,2.60
2017-04-30T08:39:43.831Z,2.60
2017-04-30T08:42:10.513Z,2.74
2017-04-30T08:44:37.197Z,2.66
2017-04-30T08:47:11.843Z,2.36
2017-04-30T08:49:38.542Z,2.12
2017-04-30T08:52:05.957Z,2.24
2017-04-30T08:54:32.655Z,3.10
2017-04-30T08:56:59.349Z,2.50
2017-04-30T08:59:26.069Z,2.48
2017-04-30T09:01:52.770Z,2.02
2017-04-30T09:04:19.465Z,2.96
2017-04-30T09:06:53.155Z,2.28
2017-04-30T09:09:19.850Z,2.72
2017-04-30T09:11:46.552Z,2.46
2017-04-30T09:14:13.235Z,2.56
2017-04-30T09:16:39.919Z,3.02
2017-04-30T09:19:06.713Z,2.86
2017-04-30T09:21:33.402Z,2.96
2017-04-30T09:24:00.113Z,2.62
2017-04-30T09:26:26.787Z,2.70
2017-04-30T09:28:53.501Z,3.18
2017-04-30T09:31:20.209Z,2.46
2017-04-30T09:33:46.892Z,2.28
2017-04-30T09:36:13.606Z,2.42
2017-04-30T09:38:40.303Z,2.70
2017-04-30T09:41:07.741Z,3.06
2017-04-30T09:43:34.418Z,8.02
2017-04-30T09:46:01.147Z,5.70
2017-04-30T09:48:27.864Z,5.84
2017-04-30T09:50:54.555Z,7.18
2017-04-30T09:53:21.281Z,8.50
2017-04-30T09:55:47.970Z,7.06
2017-04-30T09:58:14.667Z,8.86
2017-04-30T10:00:41.346Z,7.94
2017-04-30T10:03:08.050Z,8.28
2017-04-30T10:05:34.741Z,8.74
2017-04-30T10:08:01.486Z,8.36
2017-04-30T10:10:28.915Z,8.24
2017-04-30T10:12:55.824Z,7.66
2017-04-30T10:15:22.546Z,9.16
2017-04-30T10:17:49.298Z,8.56
2017-04-30T10:20:15.989Z,8.22
2017-04-30T10:22:42.682Z,9.00
2017-04-30T10:25:09.387Z,9.50
2017-04-30T10:27:36.817Z,9.00
2017-04-30T10:30:04.729Z,9.16
2017-04-30T10:32:31.440Z,10.56
2017-04-30T10:34:58.127Z,9.24
2017-04-30T10:37:24.838Z,11.34
2017-04-30T10:39:51.564Z,9.20
2017-04-30T10:42:18.274Z,8.62
2017-04-30T10:44:44.936Z,9.52
2017-04-30T10:47:11.732Z,9.60
2017-04-30T10:49:38.436Z,9.24
2017-04-30T10:52:06.373Z,8.80
2017-04-30T10:54:49.480Z,9.96
2017-04-30T10:57:16.177Z,11.18
2017-04-30T10:59:42.926Z,10.28
2017-04-30T11:02:09.601Z,8.62
2017-04-30T11:04:36.277Z,10.12
2017-04-30T11:07:02.963Z,10.48
2017-04-30T11:09:29.644Z,9.64
2017-04-30T11:11:56.351Z,10.48
2017-04-30T11:14:23.032Z,9.40
2017-04-30T11:16:49.728Z,9.42
2017-04-30T11:19:16.397Z,9.28
2017-04-30T11:21:43.065Z,10.40
2017-04-30T11:24:09.749Z,9.96
2017-04-30T11:26:36.435Z,10.78
2017-04-30T11:29:03.134Z,9.24
2017-04-30T11:31:29.816Z,8.24
2017-04-30T11:33:56.505Z,10.88
2017-04-30T11:36:23.581Z,9.28
2017-04-30T11:38:50.265Z,9.72
2017-04-30T11:41:16.957Z,9.78
2017-04-30T11:43:44.374Z,9.30
2017-04-30T11:46:11.086Z,10.14
2017-04-30T11:48:37.763Z,8.62
2017-04-30T11:51:04.761Z,10.00
2017-04-30T11:53:31.477Z,8.08
2017-04-30T11:55:58.159Z,10.16
2017-04-30T11:58:24.845Z,9.20
2017-04-30T12:00:51.531Z,8.92
2017-04-30T12:03:18.218Z,9.18
2017-04-30T12:05:44.949Z,9.62
2017-04-30T12:08:11.635Z,8.80
2017-04-30T12:10:38.353Z,8.84
2017-04-30T12:13:05.026Z,8.96
2017-04-30T12:15:31.737Z,9.56
2017-04-30T12:17:58.414Z,9.94
2017-04-30T12:20:25.230Z,9.32
2017-04-30T12:22:51.989Z,8.20
2017-04-30T12:25:18.700Z,8.44
2017-04-30T12:27:45.401Z,8.72
2017-04-30T12:30:12.089Z,8.72
2017-04-30T12:32:38.781Z,9.68
2017-04-30T12:35:05.487Z,8.54
2017-04-30T12:37:32.153Z,8.60
2017-04-30T12:39:58.877Z,8.82
2017-04-30T12:42:25.585Z,8.28
2017-04-30T12:44:52.266Z,8.98
2017-04-30T12:47:18.941Z,9.04
2017-04-30T12:49:45.759Z,9.36
2017-04-30T12:52:12.525Z,11.68
2017-04-30T12:54:39.968Z,8.50
2017-04-30T12:57:06.670Z,9.16
2017-04-30T12:59:33.405Z,9.78
2017-04-30T13:02:00.116Z,8.80
2017-04-30T13:04:26.829Z,9.48
2017-04-30T13:06:53.717Z,9.60
2017-04-30T13:09:20.469Z,8.16
2017-04-30T13:11:47.157Z,10.48
2017-04-30T13:14:13.848Z,9.56
2017-04-30T13:16:40.545Z,8.34
2017-04-30T13:19:07.237Z,10.36
2017-04-30T13:21:33.922Z,8.04
2017-04-30T13:24:00.644Z,9.52
2017-04-30T13:26:27.349Z,9.76
2017-04-30T13:28:54.057Z,9.20
2017-04-30T13:31:20.757Z,8.74
2017-04-30T13:33:47.451Z,9.40
2017-04-30T13:36:14.156Z,8.16
2017-04-30T13:38:40.885Z,8.32
2017-04-30T13:41:08.345Z,9.92
2017-04-30T13:43:35.020Z,8.22
2017-04-30T13:46:01.692Z,8.52
2017-04-30T13:48:28.377Z,8.82
2017-04-30T13:50:55.057Z,8.46
2017-04-30T13:53:21.745Z,9.02
2017-04-30T13:55:48.443Z,8.60
2017-04-30T13:58:15.144Z,8.12
2017-04-30T14:00:41.833Z,7.90
2017-04-30T14:03:08.497Z,7.70
2017-04-30T14:05:35.182Z,9.58
2017-04-30T14:08:01.861Z,8.20
2017-04-30T14:10:28.574Z,8.38
2017-04-30T14:12:55.237Z,9.86
2017-04-30T14:15:22.665Z,8.24
2017-04-30T14:17:49.565Z,9.76
2017-04-30T14:20:16.301Z,9.76
2017-04-30T14:22:42.989Z,8.18
2017-04-30T14:25:09.680Z,11.04
2017-04-30T14:27:36.390Z,9.26
2017-04-30T14:30:03.062Z,8.62
2017-04-30T14:32:29.769Z,7.98
2017-04-30T14:34:57.193Z,7.60
2017-04-30T14:37:23.881Z,8.48
2017-04-30T14:39:50.585Z,10.06
2017-04-30T14:42:17.264Z,8.82
2017-04-30T14:44:43.973Z,8.30
2017-04-30T14:47:11.393Z,9.70
2017-04-30T14:49:38.069Z,9.06
2017-04-30T14:52:05.545Z,9.12
2017-04-30T14:54:32.213Z,9.16
2017-04-30T14:56:58.904Z,7.86
2017-04-30T14:59:25.599Z,8.52
2017-04-30T15:01:52.300Z,9.82
2017-04-30T15:04:18.994Z,9.06
2017-04-30T15:06:45.681Z,8.84
2017-04-30T15:09:12.356Z,8.12
2017-04-30T15:11:39.090Z,8.66
2017-04-30T15:14:05.745Z,8.88
2017-04-30T15:16:32.441Z,8.74
2017-04-30T15:18:59.102Z,9.10
2017-04-30T15:21:25.789Z,9.00
2017-04-30T15:23:53.201Z,7.88
2017-04-30T15:26:19.890Z,7.94
2017-04-30T15:28:47.314Z,9.46
2017-04-30T15:31:14.013Z,9.02
2017-04-30T15:33:40.687Z,9.24
2017-04-30T15:36:07.381Z,8.94
2017-04-30T15:38:34.086Z,8.92
2017-04-30T15:41:00.774Z,8.54
2017-04-30T15:43:27.467Z,8.48
2017-04-30T15:45:54.920Z,8.08
2017-04-30T15:48:22.362Z,7.66
2017-04-30T15:50:49.037Z,9.08
2017-04-30T15:53:15.725Z,7.50
2017-04-30T15:55:42.413Z,8.80
2017-04-30T15:58:09.106Z,8.78
2017-04-30T16:00:35.783Z,8.00
2017-04-30T16:03:02.482Z,8.28
2017-04-30T16:05:29.166Z,7.68
2017-04-30T16:07:56.684Z,8.40
2017-04-30T16:10:23.365Z,7.32
2017-04-30T16:12:50.064Z,9.70
2017-04-30T16:15:16.823Z,13.74
2017-04-30T16:17:43.520Z,8.46
2017-04-30T16:20:10.220Z,11.58
2017-04-30T16:22:37.650Z,8.84
2017-04-30T16:25:04.350Z,8.40
2017-04-30T16:27:31.071Z,9.16
2017-04-30T16:29:57.784Z,9.08
2017-04-30T16:32:25.249Z,9.96
2017-04-30T16:34:52.030Z,8.56
2017-04-30T16:37:18.773Z,8.50
2017-04-30T16:39:45.453Z,8.30
2017-04-30T16:42:12.897Z,8.68
2017-04-30T16:44:39.602Z,7.80
2017-04-30T16:47:06.296Z,8.22
2017-04-30T16:49:33.058Z,8.72
2017-04-30T16:51:59.724Z,7.84
2017-04-30T16:54:26.450Z,10.86
2017-04-30T16:56:53.176Z,9.22
2017-04-30T16:59:19.881Z,9.18
2017-04-30T17:01:47.317Z,8.48
2017-04-30T17:04:14.009Z,8.80
2017-04-30T17:06:40.689Z,8.66
2017-04-30T17:09:07.385Z,9.12
2017-04-30T17:11:34.105Z,8.24
2017-04-30T17:14:01.549Z,8.76
2017-04-30T17:16:28.225Z,8.76
2017-04-30T17:18:54.910Z,9.08
2017-04-30T17:21:21.608Z,8.02
2017-04-30T17:23:48.310Z,7.68
2017-04-30T17:26:14.993Z,8.62
2017-04-30T17:28:41.682Z,8.44
2017-04-30T17:31:08.443Z,8.76
2017-04-30T17:33:35.194Z,8.16
2017-04-30T17:36:02.032Z,8.78
2017-04-30T17:38:28.878Z,8.48
2017-04-30T17:40:55.769Z,8.94
2017-04-30T17:43:22.574Z,8.08
2017-04-30T17:45:49.385Z,9.92
2017-04-30T17:48:16.353Z,8.72
2017-04-30T17:50:43.061Z,7.88
2017-04-30T17:53:10.469Z,7.78
2017-04-30T17:55:37.193Z,8.78
2017-04-30T17:58:03.880Z,8.56
2017-04-30T18:00:30.565Z,9.20
2017-04-30T18:02:57.347Z,8.34
2017-04-30T18:05:24.028Z,8.88
2017-04-30T18:07:50.736Z,8.50
2017-04-30T18:10:17.535Z,9.42
2017-04-30T18:12:44.261Z,8.72
2017-04-30T18:15:11.046Z,8.60
2017-04-30T18:17:37.743Z,8.98
2017-04-30T18:20:04.449Z,8.84
2017-04-30T18:22:31.882Z,8.26
2017-04-30T18:24:58.746Z,7.94
2017-04-30T18:27:26.182Z,9.28
2017-04-30T18:29:52.870Z,9.42
2017-04-30T18:32:19.701Z,9.22
2017-04-30T18:34:46.413Z,9.54
2017-04-30T18:37:13.176Z,8.08
2017-04-30T18:39:39.869Z,9.08
2017-04-30T18:42:06.556Z,9.10
2017-04-30T18:44:33.226Z,8.60
2017-04-30T18:46:59.969Z,8.98
2017-04-30T18:49:26.630Z,8.16
2017-04-30T18:51:53.321Z,9.10
2017-04-30T18:54:20.018Z,8.92
2017-04-30T18:56:47.461Z,9.18
2017-04-30T18:59:14.130Z,9.00
2017-04-30T19:01:41.569Z,8.86
2017-04-30T19:04:08.237Z,9.94
2017-04-30T19:06:35.049Z,8.60
2017-04-30T19:09:01.721Z,8.70
2017-04-30T19:11:28.408Z,8.96
2017-04-30T19:13:55.297Z,9.58
2017-04-30T19:16:21.997Z,9.24
2017-04-30T19:18:48.680Z,9.88
2017-04-30T19:21:15.383Z,9.00
2017-04-30T19:23:42.051Z,10.22
2017-04-30T19:26:08.830Z,9.50
2017-04-30T19:28:35.665Z,8.84
2017-04-30T19:31:02.366Z,10.74
2017-04-30T19:33:29.186Z,8.84
2017-04-30T19:35:55.872Z,9.10
2017-04-30T19:38:22.549Z,10.38
2017-04-30T19:40:49.445Z,9.96
2017-04-30T19:43:16.121Z,10.38
2017-04-30T19:45:42.781Z,9.32
2017-04-30T19:48:09.460Z,10.74
2017-04-30T19:50:36.146Z,9.44
2017-04-30T19:53:02.822Z,9.88
2017-04-30T19:55:29.499Z,10.86
2017-04-30T19:57:56.191Z,10.70
2017-04-30T20:00:22.854Z,9.52
2017-04-30T20:02:49.533Z,11.18
2017-04-30T20:05:16.206Z,11.54
2017-04-30T20:07:43.633Z,10.82
2017-04-30T20:10:10.568Z,10.88
2017-04-30T20:12:37.275Z,10.06
2017-04-30T20:15:03.978Z,11.48
2017-04-30T20:17:31.479Z,10.10
2017-04-30T20:19:58.159Z,10.98
2017-04-30T20:22:24.856Z,11.12
2017-04-30T20:24:51.537Z,11.66
2017-04-30T20:27:18.226Z,11.26
2017-04-30T20:29:45.045Z,12.06
2017-04-30T20:32:11.715Z,11.06
2017-04-30T20:34:38.410Z,11.30
2017-04-30T20:37:05.860Z,12.12
2017-04-30T20:39:33.302Z,12.10
2017-04-30T20:41:59.970Z,10.30
2017-04-30T20:44:27.413Z,10.62
2017-04-30T20:46:54.856Z,12.30
2017-04-30T20:49:21.582Z,9.96
2017-04-30T20:51:48.273Z,10.18
2017-04-30T20:54:15.081Z,9.82
2017-04-30T20:56:41.761Z,10.14
2017-04-30T20:59:08.449Z,9.70
2017-04-30T21:01:35.172Z,8.74
2017-04-30T21:04:01.873Z,9.42
2017-04-30T21:06:28.585Z,9.66
2017-04-30T21:08:55.291Z,8.60
2017-04-30T21:11:21.985Z,9.50
2017-04-30T21:13:48.689Z,10.84
2017-04-30T21:16:15.373Z,8.60
2017-04-30T21:18:42.082Z,8.94
2017-04-30T21:21:09.498Z,9.26
2017-04-30T21:23:36.197Z,8.68
2017-04-30T21:26:02.944Z,8.14
2017-04-30T21:28:29.697Z,9.04
2017-04-30T21:30:56.378Z,9.62
2017-04-30T21:33:23.071Z,9.40
2017-04-30T21:35:49.737Z,10.92
2017-04-30T21:38:16.469Z,9.26
2017-04-30T21:40:43.157Z,9.08
2017-04-30T21:43:09.858Z,7.94
2017-04-30T21:45:36.557Z,8.98
2017-04-30T21:48:03.377Z,10.50
2017-04-30T21:50:30.095Z,9.30
2017-04-30T21:52:56.784Z,9.76
2017-04-30T21:55:23.474Z,10.54
2017-04-30T21:57:50.945Z,9.88
2017-04-30T22:00:17.693Z,9.80
2017-04-30T22:02:44.362Z,11.44
2017-04-30T22:05:11.086Z,9.06
2017-04-30T22:07:37.758Z,10.64
2017-04-30T22:10:04.437Z,10.26
2017-04-30T22:12:31.129Z,11.52
2017-04-30T22:14:57.829Z,10.64
2017-04-30T22:17:24.503Z,11.76
2017-04-30T22:19:51.190Z,12.92
2017-04-30T22:22:17.881Z,10.66
2017-04-30T22:24:44.570Z,10.36
2017-04-30T22:27:11.986Z,10.04
2017-04-30T22:29:38.670Z,10.30
2017-04-30T22:32:05.349Z,11.10
2017-04-30T22:34:32.030Z,11.80
2017-04-30T22:36:58.704Z,12.04
2017-04-30T22:39:25.533Z,11.48
2017-04-30T22:41:52.218Z,11.04
2017-04-30T22:44:18.917Z,11.74
2017-04-30T22:46:45.600Z,10.40
2017-04-30T22:49:12.313Z,12.08
2017-04-30T22:51:38.973Z,11.08
2017-04-30T22:54:05.649Z,11.08
2017-04-30T22:56:33.112Z,10.64
2017-04-30T22:58:59.797Z,11.22
2017-04-30T23:01:26.473Z,11.42
2017-04-30T23:03:53.179Z,11.84
2017-04-30T23:06:19.877Z,11.58
2017-04-30T23:08:46.557Z,10.44
2017-04-30T23:11:13.353Z,9.50
2017-04-30T23:13:40.025Z,12.34
2017-04-30T23:16:06.704Z,11.74
2017-04-30T23:18:33.369Z,12.32
2017-04-30T23:21:00.048Z,11.66
2017-04-30T23:23:26.715Z,11.72
2017-04-30T23:25:54.200Z,11.22
2017-04-30T23:28:20.869Z,11.18
2017-04-30T23:30:47.553Z,12.16
2017-04-30T23:33:14.250Z,11.10
2017-04-30T23:35:40.937Z,12.30
2017-04-30T23:38:08.393Z,13.04
2017-04-30T23:40:35.125Z,12.12
2017-04-30T23:43:01.807Z,11.44
2017-04-30T23:45:28.505Z,11.06
2017-04-30T23:47:56.000Z,10.94
2017-04-30T23:50:22.675Z,12.68
2017-04-30T23:52:49.366Z,11.10
2017-04-30T23:55:16.086Z,12.16
2017-04-30T23:57:43.501Z,11.84
